Time;durP1;ratioP1;P1;durP2;ratioP2;P2;SDS_P1;SDS_P2;PMS_P1;PMS_P2;Temp;Humidity;BMP_temperature;BMP_pressure;BME280_temperature;BME280_humidity;BME280_pressure;Samples;Min_cycle;Max_cycle;Signal;HPM_P1;HPM_P2
2023/02/27 00:00:53;;;;;;;5.93;2.40;;;;;;;;;;5058578;28;20745;-76
2023/02/27 00:03:19;;;;;;;9.33;3.57;;;;;;;;;;5056840;28;20631;-76
2023/02/27 00:05:45;;;;;;;6.47;2.30;;;;;;;;;;5044112;28;20275;-77
2023/02/27 00:08:11;;;;;;;5.37;2.80;;;;;;;;;;5056777;28;20669;-77
2023/02/27 00:10:37;;;;;;;5.23;2.53;;;;;;;;;;5056578;28;20274;-79
2023/02/27 00:13:03;;;;;;;4.63;2.63;;;;;;;;;;5038687;28;20302;-78
2023/02/27 00:15:31;;;;;;;6.70;3.60;;;;;;;;;;5056322;28;20275;-77
2023/02/27 00:17:57;;;;;;;7.33;2.13;;;;;;;;;;5057252;28;20286;-78
2023/02/27 00:20:23;;;;;;;5.27;2.43;;;;;;;;;;5054908;28;20321;-78
2023/02/27 00:22:49;;;;;;;7.23;2.97;;;;;;;;;;5055943;28;20309;-78
2023/02/27 00:25:15;;;;;;;6.37;2.20;;;;;;;;;;5056728;28;20365;-77
2023/02/27 00:27:41;;;;;;;4.37;2.10;;;;;;;;;;5057430;28;20306;-78
2023/02/27 00:30:11;;;;;;;8.60;2.60;;;;;;;;;;5054730;28;20592;-77
2023/02/27 00:32:37;;;;;;;4.40;2.37;;;;;;;;;;5039445;28;20374;-77
2023/02/27 00:35:04;;;;;;;7.90;2.73;;;;;;;;;;5040351;28;20375;-78
2023/02/27 00:37:30;;;;;;;8.60;2.83;;;;;;;;;;5042091;28;20730;-78
2023/02/27 00:39:56;;;;;;;10.80;2.97;;;;;;;;;;5053630;28;20286;-78
2023/02/27 00:42:22;;;;;;;10.27;3.17;;;;;;;;;;5054730;28;20283;-78
2023/02/27 00:44:48;;;;;;;8.53;3.03;;;;;;;;;;5061837;28;20085;-77
2023/02/27 00:47:14;;;;;;;4.83;2.73;;;;;;;;;;5049595;28;20071;-79
2023/02/27 00:49:40;;;;;;;5.93;2.50;;;;;;;;;;5061025;28;20096;-78
2023/02/27 00:52:06;;;;;;;5.20;2.47;;;;;;;;;;5058223;28;20774;-77
2023/02/27 00:54:34;;;;;;;6.17;2.47;;;;;;;;;;5042651;28;20287;-78
2023/02/27 00:57:00;;;;;;;5.87;2.53;;;;;;;;;;5058082;28;20322;-76
2023/02/27 00:59:26;;;;;;;6.50;2.30;;;;;;;;;;5058505;28;20315;-78
2023/02/27 01:01:52;;;;;;;4.40;2.50;;;;;;;;;;5050434;28;20025;-78
2023/02/27 01:04:18;;;;;;;5.43;1.93;;;;;;;;;;5060439;28;20490;-77
2023/02/27 01:06:46;;;;;;;6.77;2.53;;;;;;;;;;5043352;28;20040;-78
2023/02/27 01:09:12;;;;;;;7.10;2.60;;;;;;;;;;5049764;28;20028;-78
2023/02/27 01:11:40;;;;;;;8.10;2.80;;;;;;;;;;5059243;28;20278;-78
2023/02/27 01:14:06;;;;;;;5.63;2.70;;;;;;;;;;5058083;28;20291;-78
2023/02/27 01:16:32;;;;;;;4.37;2.60;;;;;;;;;;5057693;28;20291;-77
2023/02/27 01:18:58;;;;;;;3.63;2.20;;;;;;;;;;5043392;28;20025;-76
2023/02/27 01:21:25;;;;;;;7.93;2.67;;;;;;;;;;5060562;28;20017;-77
2023/02/27 01:23:51;;;;;;;5.67;2.50;;;;;;;;;;5059185;28;20272;-78
2023/02/27 01:26:17;;;;;;;7.90;2.57;;;;;;;;;;5042146;28;20713;-77
2023/02/27 01:28:43;;;;;;;3.97;2.33;;;;;;;;;;5049483;28;20044;-78
2023/02/27 01:31:09;;;;;;;7.57;2.70;;;;;;;;;;5048055;28;20270;-78
2023/02/27 01:33:35;;;;;;;4.43;2.30;;;;;;;;;;5039726;28;20033;-77
2023/02/27 01:36:01;;;;;;;6.80;2.77;;;;;;;;;;5045268;28;20029;-77
2023/02/27 01:38:28;;;;;;;4.73;2.60;;;;;;;;;;5045927;28;20360;-77
2023/02/27 01:40:56;;;;;;;7.10;2.77;;;;;;;;;;5048136;28;20271;-78
2023/02/27 01:43:22;;;;;;;6.20;2.57;;;;;;;;;;5040915;28;20357;-78
2023/02/27 01:45:52;;;;;;;6.67;2.90;;;;;;;;;;5042897;28;20289;-77
2023/02/27 01:48:24;;;;;;;10.93;2.83;;;;;;;;;;5060459;28;20054;-79
2023/02/27 01:51:22;;;;;;;7.07;2.50;;;;;;;;;;5058121;28;20275;-77
2023/02/27 01:53:49;;;;;;;4.37;2.37;;;;;;;;;;5026920;28;20025;-78
2023/02/27 01:56:20;;;;;;;4.80;2.80;;;;;;;;;;5060215;28;20266;-77
2023/02/27 01:58:48;;;;;;;6.43;2.50;;;;;;;;;;5044393;28;20294;-78
2023/02/27 02:01:14;;;;;;;3.87;1.90;;;;;;;;;;5044302;28;20283;-79
2023/02/27 02:03:59;;;;;;;6.37;2.07;;;;;;;;;;5050453;28;20493;-77
2023/02/27 02:06:27;;;;;;;4.47;2.50;;;;;;;;;;5043699;28;20282;-77
2023/02/27 02:08:54;;;;;;;5.40;2.47;;;;;;;;;;5064665;28;20279;-78
2023/02/27 02:11:20;;;;;;;7.90;2.70;;;;;;;;;;5043803;28;20279;-78
2023/02/27 02:13:48;;;;;;;3.60;2.33;;;;;;;;;;5046710;28;20287;-78
2023/02/27 02:16:33;;;;;;;8.17;2.50;;;;;;;;;;5044889;28;20808;-78
2023/02/27 02:19:02;;;;;;;7.37;2.50;;;;;;;;;;5043404;28;20328;-78
2023/02/27 02:21:31;;;;;;;6.90;2.80;;;;;;;;;;5042775;28;20268;-78
2023/02/27 02:24:09;;;;;;;4.83;2.00;;;;;;;;;;5063104;28;20774;-76
2023/02/27 02:26:38;;;;;;;8.70;2.87;;;;;;;;;;5057848;28;20289;-79
2023/02/27 02:29:23;;;;;;;8.70;2.93;;;;;;;;;;5059692;28;20378;-78
2023/02/27 02:32:11;;;;;;;3.80;1.87;;;;;;;;;;5058376;28;20279;-77
2023/02/27 02:34:37;;;;;;;8.80;2.97;;;;;;;;;;5059978;28;20302;-78
2023/02/27 02:37:09;;;;;;;6.03;2.40;;;;;;;;;;5039886;28;20271;-79
2023/02/27 02:40:03;;;;;;;5.75;2.65;;;;;;;;;;5049654;28;20032;-78
2023/02/27 02:42:36;;;;;;;10.07;3.13;;;;;;;;;;5061374;28;20035;-79
2023/02/27 02:45:03;;;;;;;5.33;2.97;;;;;;;;;;5057996;28;20338;-79
2023/02/27 02:47:41;;;;;;;6.63;2.47;;;;;;;;;;5050881;28;20275;-79
2023/02/27 02:50:07;;;;;;;5.90;2.50;;;;;;;;;;5062308;28;20264;-79
2023/02/27 02:52:46;;;;;;;4.60;2.70;;;;;;;;;;5051003;28;20766;-79
2023/02/27 02:55:21;;;;;;;6.57;3.27;;;;;;;;;;5065327;28;20104;-79
2023/02/27 02:58:01;;;;;;;6.80;2.67;;;;;;;;;;5061667;28;20281;-79
2023/02/27 03:00:32;;;;;;;5.90;2.60;;;;;;;;;;5026796;28;20294;-78
2023/02/27 03:03:05;;;;;;;8.07;3.43;;;;;;;;;;5050407;28;20351;-79
2023/02/27 03:05:37;;;;;;;8.80;2.70;;;;;;;;;;5053828;28;20860;-79
2023/02/27 03:08:15;;;;;;;4.07;3.00;;;;;;;;;;5063857;28;20291;-78
2023/02/27 03:10:44;;;;;;;6.03;2.70;;;;;;;;;;5045700;28;20266;-78
2023/02/27 03:13:34;;;;;;;5.10;3.03;;;;;;;;;;5051802;28;20382;-79
2023/02/27 03:16:00;;;;;;;5.67;2.80;;;;;;;;;;5047902;28;20282;-78
2023/02/27 03:18:30;;;;;;;5.20;3.43;;;;;;;;;;5056743;28;20275;-79
2023/02/27 03:21:03;;;;;;;8.97;2.77;;;;;;;;;;5056771;28;20027;-79
2023/02/27 03:23:29;;;;;;;;;;;;;;;;;;5041986;28;20271;-79
2023/02/27 03:25:55;;;;;;;5.07;3.07;;;;;;;;;;5061676;28;20351;-78
2023/02/27 03:28:23;;;;;;;7.97;3.10;;;;;;;;;;5045309;28;20029;-77
2023/02/27 03:30:59;;;;;;;8.60;3.13;;;;;;;;;;5052937;28;20270;-79
2023/02/27 03:33:35;;;;;;;9.00;2.97;;;;;;;;;;5063899;28;20278;-79
2023/02/27 03:36:09;;;;;;;6.87;3.17;;;;;;;;;;5049916;28;20282;-79
2023/02/27 03:38:35;;;;;;;13.47;3.53;;;;;;;;;;5050175;28;20293;-78
2023/02/27 03:41:13;;;;;;;8.17;3.10;;;;;;;;;;5048930;28;20274;-79
2023/02/27 03:43:39;;;;;;;8.90;3.87;;;;;;;;;;5068353;28;20035;-80
2023/02/27 03:46:09;;;;;;;7.97;3.50;;;;;;;;;;5056547;28;20259;-79
2023/02/27 03:48:35;;;;;;;7.03;3.57;;;;;;;;;;5054848;28;20449;-79
2023/02/27 03:51:01;;;;;;;8.20;4.27;;;;;;;;;;5071121;28;20255;-79
2023/02/27 03:53:30;;;;;;;5.97;3.63;;;;;;;;;;5065388;28;20291;-78
2023/02/27 03:55:57;;;;;;;9.53;3.40;;;;;;;;;;5057589;28;20298;-78
2023/02/27 03:58:24;;;;;;;9.53;3.63;;;;;;;;;;5066787;28;20745;-79
2023/02/27 04:00:50;;;;;;;7.27;3.83;;;;;;;;;;5079138;28;20321;-79
2023/02/27 04:03:16;;;;;;;14.10;3.70;;;;;;;;;;5063226;28;20274;-78
2023/02/27 04:05:42;;;;;;;7.30;3.90;;;;;;;;;;5050799;28;20432;-79
2023/02/27 04:08:15;;;;;;;5.57;3.70;;;;;;;;;;5053606;28;20743;-79
2023/02/27 04:10:44;;;;;;;8.87;3.80;;;;;;;;;;5043211;28;20325;-78
2023/02/27 04:13:29;;;;;;;6.82;3.67;;;;;;;;;;5067609;28;20309;-79
2023/02/27 04:16:01;;;;;;;8.80;3.70;;;;;;;;;;5068779;28;20012;-79
2023/02/27 04:18:36;;;;;;;7.55;3.92;;;;;;;;;;5051517;28;20271;-78
2023/02/27 04:21:08;;;;;;;12.88;4.53;;;;;;;;;;5059694;28;20116;-76
2023/02/27 04:23:53;;;;;;;12.30;4.85;;;;;;;;;;5046316;28;20057;-78
2023/02/27 04:26:19;;;;;;;11.83;4.07;;;;;;;;;;5060283;28;20028;-76
2023/02/27 04:29:06;;;;;;;6.43;4.20;;;;;;;;;;5043085;28;20374;-79
2023/02/27 04:31:39;;;;;;;8.70;3.73;;;;;;;;;;5034992;28;20591;-77
2023/02/27 04:34:24;;;;;;;10.17;3.87;;;;;;;;;;5060064;28;20448;-77
2023/02/27 04:36:55;;;;;;;6.00;3.88;;;;;;;;;;5050920;28;20279;-78
2023/02/27 04:39:23;;;;;;;9.90;4.63;;;;;;;;;;5054030;28;20037;-77
2023/02/27 04:41:51;;;;;;;7.93;4.03;;;;;;;;;;5047176;28;20271;-77
2023/02/27 04:44:18;;;;;;;9.60;4.35;;;;;;;;;;5044453;28;20028;-74
2023/02/27 04:46:45;;;;;;;8.27;4.23;;;;;;;;;;5064929;28;20024;-78
2023/02/27 04:49:11;;;;;;;10.10;4.28;;;;;;;;;;5062034;28;20290;-77
2023/02/27 04:51:42;;;;;;;11.43;6.37;;;;;;;;;;5045096;28;20032;-79
2023/02/27 04:54:11;;;;;;;7.70;4.40;;;;;;;;;;5060230;28;20037;-77
2023/02/27 04:56:48;;;;;;;8.17;3.80;;;;;;;;;;5044422;28;20283;-76
2023/02/27 04:59:34;;;;;;;8.07;3.97;;;;;;;;;;5055823;28;20283;-77
2023/02/27 05:02:24;;;;;;;7.97;4.03;;;;;;;;;;5029398;28;20313;-79
2023/02/27 05:04:51;;;;;;;6.43;4.23;;;;;;;;;;5046568;28;20115;-78
2023/02/27 05:07:19;;;;;;;10.37;4.67;;;;;;;;;;5044812;28;20290;-78
2023/02/27 05:09:49;;;;;;;9.07;4.20;;;;;;;;;;5050064;28;20321;-78
2023/02/27 05:12:26;;;;;;;9.37;3.93;;;;;;;;;;5059826;28;20279;-77
2023/02/27 05:15:11;;;;;;;9.37;4.30;;;;;;;;;;5041632;28;20282;-78
2023/02/27 05:17:43;;;;;;;12.80;4.70;;;;;;;;;;5061260;28;20350;-79
2023/02/27 05:20:11;;;;;;;7.60;4.22;;;;;;;;;;5048685;28;20298;-78
2023/02/27 05:22:56;;;;;;;6.30;4.13;;;;;;;;;;5045805;28;20051;-78
2023/02/27 05:25:22;;;;;;;7.50;3.73;;;;;;;;;;5060386;28;20270;-77
2023/02/27 05:27:49;;;;;;;11.33;4.70;;;;;;;;;;5039173;28;20278;-79
2023/02/27 05:30:19;;;;;;;11.13;3.87;;;;;;;;;;5046616;28;20036;-77
2023/02/27 05:32:51;;;;;;;8.60;4.73;;;;;;;;;;5044248;28;20613;-77
2023/02/27 05:35:17;;;;;;;12.63;5.20;;;;;;;;;;5041352;28;20301;-78
2023/02/27 05:37:53;;;;;;;9.87;4.73;;;;;;;;;;5053285;28;20108;-76
2023/02/27 05:40:22;;;;;;;6.85;4.30;;;;;;;;;;5044398;28;20282;-78
2023/02/27 05:42:59;;;;;;;11.57;4.57;;;;;;;;;;5041628;28;20063;-77
2023/02/27 05:45:28;;;;;;;7.18;4.15;;;;;;;;;;5041893;28;20758;-78
2023/02/27 05:47:57;;;;;;;11.80;4.60;;;;;;;;;;5060598;28;20055;-79
2023/02/27 05:50:26;;;;;;;8.10;4.37;;;;;;;;;;5057850;28;20287;-77
2023/02/27 05:52:53;;;;;;;10.17;4.87;;;;;;;;;;5040521;28;20301;-77
2023/02/27 05:55:26;;;;;;;9.67;4.30;;;;;;;;;;5042447;28;20377;-77
2023/02/27 05:58:05;;;;;;;12.70;4.70;;;;;;;;;;5048988;28;21160;-77
2023/02/27 06:00:34;;;;;;;9.17;4.80;;;;;;;;;;5041625;28;20336;-76
2023/02/27 06:03:00;;;;;;;7.27;4.73;;;;;;;;;;5050768;28;21211;-77
2023/02/27 06:05:26;;;;;;;13.45;5.30;;;;;;;;;;5058788;28;20271;-77
2023/02/27 06:07:55;;;;;;;9.67;4.97;;;;;;;;;;5058958;28;20063;-78
2023/02/27 06:10:21;;;;;;;7.97;4.97;;;;;;;;;;5049392;28;20267;-76
2023/02/27 06:12:48;;;;;;;10.68;5.75;;;;;;;;;;5060876;28;20746;-75
2023/02/27 06:15:14;;;;;;;9.80;4.73;;;;;;;;;;5042705;28;20037;-78
2023/02/27 06:17:40;;;;;;;9.57;4.72;;;;;;;;;;5040828;28;20662;-78
2023/02/27 06:20:07;;;;;;;14.07;5.78;;;;;;;;;;5044788;28;20025;-77
2023/02/27 06:22:33;;;;;;;13.98;5.65;;;;;;;;;;5044765;28;20067;-79
2023/02/27 06:25:00;;;;;;;10.80;5.78;;;;;;;;;;5057337;28;20024;-77
2023/02/27 06:27:28;;;;;;;11.55;5.90;;;;;;;;;;5041966;28;20116;-77
2023/02/27 06:29:54;;;;;;;12.45;6.18;;;;;;;;;;5058730;28;20055;-76
2023/02/27 06:32:24;;;;;;;11.02;5.65;;;;;;;;;;5042302;28;20237;-75
2023/02/27 06:34:50;;;;;;;12.68;5.25;;;;;;;;;;5056877;28;20032;-78
2023/02/27 06:37:18;;;;;;;12.52;5.55;;;;;;;;;;5040061;28;20036;-75
2023/02/27 06:39:44;;;;;;;10.73;5.40;;;;;;;;;;5039831;28;20047;-77
2023/02/27 06:42:12;;;;;;;10.57;5.73;;;;;;;;;;5057188;28;20679;-78
2023/02/27 06:44:38;;;;;;;13.63;5.45;;;;;;;;;;5056758;28;20108;-76
2023/02/27 06:47:07;;;;;;;16.40;5.97;;;;;;;;;;5058955;28;20144;-78
2023/02/27 06:49:33;;;;;;;11.73;5.90;;;;;;;;;;5056693;28;20035;-75
2023/02/27 06:51:59;;;;;;;15.13;5.53;;;;;;;;;;5041134;28;21173;-77
2023/02/27 06:54:25;;;;;;;12.03;7.03;;;;;;;;;;5058112;28;20300;-77
2023/02/27 06:56:51;;;;;;;15.83;7.53;;;;;;;;;;5040761;28;20033;-76
2023/02/27 06:59:17;;;;;;;15.10;6.63;;;;;;;;;;5058404;28;20362;-77
2023/02/27 07:01:43;;;;;;;14.23;6.93;;;;;;;;;;5040916;28;20292;-77
2023/02/27 07:04:12;;;;;;;14.57;7.37;;;;;;;;;;5045347;28;20806;-77
2023/02/27 07:06:38;;;;;;;13.93;5.53;;;;;;;;;;5041050;28;20283;-76
2023/02/27 07:09:07;;;;;;;12.53;5.33;;;;;;;;;;5042002;28;20288;-77
2023/02/27 07:11:33;;;;;;;9.13;4.97;;;;;;;;;;5040870;28;20029;-76
2023/02/27 07:13:59;;;;;;;10.90;5.30;;;;;;;;;;5040871;28;20287;-77
2023/02/27 07:16:25;;;;;;;12.30;4.93;;;;;;;;;;5043263;28;20279;-76
2023/02/27 07:18:51;;;;;;;6.33;4.27;;;;;;;;;;5055806;28;20070;-77
2023/02/27 07:21:17;;;;;;;10.63;4.90;;;;;;;;;;5048587;28;20284;-77
2023/02/27 07:23:43;;;;;;;15.63;4.97;;;;;;;;;;5056678;28;20099;-75
2023/02/27 07:26:09;;;;;;;7.87;3.97;;;;;;;;;;5057077;28;21132;-77
2023/02/27 07:28:38;;;;;;;12.03;4.40;;;;;;;;;;5043304;28;20307;-76
2023/02/27 07:31:06;;;;;;;9.90;4.40;;;;;;;;;;5051345;28;20302;-76
2023/02/27 07:33:32;;;;;;;7.73;3.73;;;;;;;;;;5056838;28;20378;-76
2023/02/27 07:35:58;;;;;;;11.23;4.60;;;;;;;;;;5057240;28;20282;-77
2023/02/27 07:38:28;;;;;;;12.70;4.70;;;;;;;;;;5049308;28;20367;-76
2023/02/27 07:40:54;;;;;;;7.30;3.87;;;;;;;;;;5044455;28;20263;-77
2023/02/27 07:43:20;;;;;;;11.67;4.60;;;;;;;;;;5042032;28;20374;-76
2023/02/27 07:45:46;;;;;;;7.80;3.60;;;;;;;;;;5045802;28;20437;-78
2023/02/27 07:48:14;;;;;;;8.20;4.00;;;;;;;;;;5039790;28;20565;-78
2023/02/27 07:50:40;;;;;;;11.60;3.90;;;;;;;;;;5058640;28;20282;-76
2023/02/27 07:53:06;;;;;;;4.67;2.93;;;;;;;;;;5061229;28;20589;-78
2023/02/27 07:55:32;;;;;;;6.93;3.40;;;;;;;;;;5061467;28;20025;-75
2023/02/27 07:58:09;;;;;;;5.07;2.90;;;;;;;;;;5043652;28;20619;-76
2023/02/27 08:00:35;;;;;;;6.13;3.27;;;;;;;;;;5047567;28;20044;-76
2023/02/27 08:03:05;;;;;;;7.07;3.30;;;;;;;;;;5059584;28;20283;-77
2023/02/27 08:05:31;;;;;;;9.07;3.20;;;;;;;;;;5047290;28;20275;-77
2023/02/27 08:07:57;;;;;;;5.80;2.90;;;;;;;;;;5043405;28;20270;-76
2023/02/27 08:10:23;;;;;;;6.53;2.80;;;;;;;;;;5043538;28;20287;-75
2023/02/27 08:12:49;;;;;;;7.63;3.80;;;;;;;;;;5052288;28;20433;-77
2023/02/27 08:15:16;;;;;;;8.97;2.90;;;;;;;;;;5048326;28;20369;-77
2023/02/27 08:17:42;;;;;;;5.23;2.87;;;;;;;;;;5050994;28;20036;-78
2023/02/27 08:20:12;;;;;;;8.03;3.33;;;;;;;;;;5059450;28;20275;-78
2023/02/27 08:22:38;;;;;;;9.37;3.13;;;;;;;;;;5060864;28;20271;-78
2023/02/27 08:25:06;;;;;;;8.20;4.83;;;;;;;;;;5042281;28;20369;-77
2023/02/27 08:27:32;;;;;;;5.77;3.17;;;;;;;;;;5061375;28;20271;-77
2023/02/27 08:29:58;;;;;;;6.50;3.00;;;;;;;;;;5062829;28;20400;-76
2023/02/27 08:32:24;;;;;;;6.07;3.00;;;;;;;;;;5045527;28;20308;-77
2023/02/27 08:34:50;;;;;;;5.23;2.50;;;;;;;;;;5064143;28;20755;-77
2023/02/27 08:37:16;;;;;;;9.00;2.93;;;;;;;;;;5059102;28;20040;-76
2023/02/27 08:39:42;;;;;;;7.53;3.27;;;;;;;;;;5062839;28;20480;-75
2023/02/27 08:42:08;;;;;;;5.97;2.90;;;;;;;;;;5059361;28;20102;-79
2023/02/27 08:44:34;;;;;;;6.77;2.67;;;;;;;;;;5074057;28;20255;-76
2023/02/27 08:47:00;;;;;;;4.77;2.77;;;;;;;;;;5061070;28;20035;-76
2023/02/27 08:49:26;;;;;;;8.97;3.57;;;;;;;;;;5060231;28;20503;-76
2023/02/27 08:51:52;;;;;;;6.03;2.70;;;;;;;;;;5059993;28;20261;-77
2023/02/27 08:54:19;;;;;;;6.60;3.17;;;;;;;;;;5051471;28;20037;-76
2023/02/27 08:56:46;;;;;;;9.97;4.40;;;;;;;;;;5058822;28;20302;-77
2023/02/27 08:59:12;;;;;;;8.63;4.47;;;;;;;;;;5069623;28;20267;-77
2023/02/27 09:01:38;;;;;;;4.90;2.93;;;;;;;;;;5061139;28;20263;-77
2023/02/27 09:04:05;;;;;;;5.57;2.60;;;;;;;;;;5074309;28;20258;-76
2023/02/27 09:06:34;;;;;;;5.07;2.93;;;;;;;;;;5060581;28;20285;-75
2023/02/27 09:09:03;;;;;;;4.17;2.27;;;;;;;;;;5053929;28;20266;-75
2023/02/27 09:11:30;;;;;;;5.47;2.60;;;;;;;;;;5071361;28;20274;-77
2023/02/27 09:13:56;;;;;;;10.03;5.60;;;;;;;;;;5078071;28;20325;-75
2023/02/27 09:16:23;;;;;;;6.30;2.60;;;;;;;;;;5083128;28;20278;-76
2023/02/27 09:18:49;;;;;;;5.10;2.57;;;;;;;;;;5066063;28;20282;-76
2023/02/27 09:21:16;;;;;;;9.03;2.43;;;;;;;;;;5064750;28;20282;-76
2023/02/27 09:23:42;;;;;;;4.60;2.33;;;;;;;;;;5057016;28;20786;-77
2023/02/27 09:26:08;;;;;;;8.47;2.27;;;;;;;;;;5070242;28;20350;-76
2023/02/27 09:28:34;;;;;;;5.13;2.27;;;;;;;;;;5050784;28;20032;-76
2023/02/27 09:31:01;;;;;;;6.33;2.50;;;;;;;;;;5053485;28;20714;-77
2023/02/27 09:33:27;;;;;;;8.53;3.23;;;;;;;;;;5051417;28;20275;-78
2023/02/27 09:35:54;;;;;;;6.40;3.23;;;;;;;;;;5053876;28;21654;-76
2023/02/27 09:38:20;;;;;;;7.50;3.90;;;;;;;;;;5073025;28;20324;-77
2023/02/27 09:40:47;;;;;;;9.50;5.73;;;;;;;;;;5055850;28;20732;-76
2023/02/27 09:43:16;;;;;;;6.93;3.20;;;;;;;;;;5054205;28;20264;-78
2023/02/27 09:45:43;;;;;;;5.00;2.80;;;;;;;;;;5044366;28;20317;-76
2023/02/27 09:48:15;;;;;;;3.73;2.40;;;;;;;;;;5077737;28;20263;-77
2023/02/27 09:50:45;;;;;;;10.48;3.83;;;;;;;;;;5057054;28;20290;-76
2023/02/27 09:53:13;;;;;;;8.60;2.90;;;;;;;;;;5053616;28;20040;-76
2023/02/27 09:55:39;;;;;;;7.73;2.47;;;;;;;;;;5059676;28;20255;-77
2023/02/27 09:58:24;;;;;;;5.83;3.73;;;;;;;;;;5056728;28;20267;-76
2023/02/27 10:00:56;;;;;;;6.80;3.60;;;;;;;;;;5070912;28;20687;-77
2023/02/27 10:03:42;;;;;;;7.30;3.58;;;;;;;;;;5067487;28;20343;-77
2023/02/27 10:06:14;;;;;;;7.23;3.23;;;;;;;;;;5052681;28;20021;-76
2023/02/27 10:08:40;;;;;;;5.93;2.20;;;;;;;;;;5047585;28;20588;-77
2023/02/27 10:11:12;;;;;;;6.87;2.57;;;;;;;;;;5056426;28;20104;-76
2023/02/27 10:13:54;;;;;;;5.78;2.30;;;;;;;;;;5066008;28;20020;-76
2023/02/27 10:16:21;;;;;;;4.05;1.85;;;;;;;;;;5069472;28;20059;-76
2023/02/27 10:19:04;;;;;;;7.90;2.70;;;;;;;;;;5044769;28;20041;-77
2023/02/27 10:21:38;;;;;;;8.95;2.08;;;;;;;;;;5058934;28;20322;-77
2023/02/27 10:24:22;;;;;;;4.63;1.93;;;;;;;;;;5061003;28;20064;-76
2023/02/27 10:26:51;;;;;;;4.87;1.80;;;;;;;;;;5058790;28;20290;-75
2023/02/27 10:29:19;;;;;;;3.27;1.30;;;;;;;;;;5057134;28;20274;-76
2023/02/27 10:31:47;;;;;;;5.43;1.63;;;;;;;;;;5057588;28;20643;-76
2023/02/27 10:34:15;;;;;;;2.40;1.43;;;;;;;;;;5040305;28;20299;-77
2023/02/27 10:36:42;;;;;;;2.20;0.80;;;;;;;;;;5044590;28;20275;-75
2023/02/27 10:39:10;;;;;;;4.43;1.33;;;;;;;;;;5041073;28;20699;-76
2023/02/27 10:41:36;;;;;;;3.63;1.40;;;;;;;;;;5041701;28;20293;-77
2023/02/27 10:44:03;;;;;;;3.43;1.60;;;;;;;;;;5059933;28;20108;-77
2023/02/27 10:46:30;;;;;;;1.87;1.07;;;;;;;;;;5059275;28;20271;-76
2023/02/27 10:49:00;;;;;;;2.33;1.43;;;;;;;;;;5044793;28;21455;-77
2023/02/27 10:51:31;;;;;;;2.73;1.50;;;;;;;;;;5058718;28;20330;-75
2023/02/27 10:54:18;;;;;;;5.27;1.60;;;;;;;;;;5059032;28;20132;-76
2023/02/27 10:56:52;;;;;;;4.57;1.67;;;;;;;;;;5056003;28;20024;-76
2023/02/27 10:59:23;;;;;;;1.80;1.00;;;;;;;;;;5047258;28;20271;-75
2023/02/27 11:01:51;;;;;;;2.50;1.53;;;;;;;;;;5037856;28;20126;-75
2023/02/27 11:04:25;;;;;;;1.63;1.07;;;;;;;;;;5055557;28;20063;-75
2023/02/27 11:06:52;;;;;;;2.20;0.80;;;;;;;;;;5057817;28;20109;-75
2023/02/27 11:09:23;;;;;;;0.90;0.50;;;;;;;;;;5054657;28;20029;-76
2023/02/27 11:11:50;;;;;;;4.53;1.30;;;;;;;;;;5055932;28;20043;-76
2023/02/27 11:14:19;;;;;;;4.47;1.50;;;;;;;;;;5055214;28;20690;-75
2023/02/27 11:16:50;;;;;;;3.73;1.90;;;;;;;;;;5038514;28;20467;-74
2023/02/27 11:19:29;;;;;;;20.80;10.97;;;;;;;;;;5055887;28;20052;-76
2023/02/27 11:22:00;;;;;;;3.43;1.10;;;;;;;;;;5043049;28;20028;-75
2023/02/27 11:24:27;;;;;;;4.17;1.43;;;;;;;;;;5057532;28;20071;-76
2023/02/27 11:27:05;;;;;;;36.10;18.60;;;;;;;;;;5056128;28;20783;-75
2023/02/27 11:29:32;;;;;;;25.93;14.13;;;;;;;;;;5054939;28;20033;-74
2023/02/27 11:32:04;;;;;;;6.00;3.20;;;;;;;;;;5048306;28;20041;-76
2023/02/27 11:34:37;;;;;;;2.80;1.80;;;;;;;;;;5057140;28;20085;-76
2023/02/27 11:37:09;;;;;;;4.77;1.17;;;;;;;;;;5056344;28;20485;-76
2023/02/27 11:39:37;;;;;;;2.70;1.33;;;;;;;;;;5056739;28;21606;-75
2023/02/27 11:42:18;;;;;;;3.30;1.10;;;;;;;;;;5039100;28;20033;-76
2023/02/27 11:44:53;;;;;;;4.33;1.13;;;;;;;;;;5039105;28;20037;-75
2023/02/27 11:47:20;;;;;;;1.87;1.27;;;;;;;;;;5044982;28;20087;-75
2023/02/27 11:49:58;;;;;;;4.33;1.53;;;;;;;;;;5054526;28;20048;-75
2023/02/27 11:52:37;;;;;;;3.17;1.70;;;;;;;;;;5042369;28;20048;-75
2023/02/27 11:55:04;;;;;;;4.03;1.50;;;;;;;;;;5056333;28;20033;-77
2023/02/27 11:57:32;;;;;;;4.90;1.80;;;;;;;;;;5056265;28;20036;-76
2023/02/27 12:00:05;;;;;;;4.73;2.00;;;;;;;;;;5047819;28;20077;-75
2023/02/27 12:02:31;;;;;;;3.97;1.90;;;;;;;;;;5046531;28;20029;-75
2023/02/27 12:05:15;;;;;;;5.43;2.23;;;;;;;;;;5055500;28;20384;-75
2023/02/27 12:07:45;;;;;;;2.03;1.60;;;;;;;;;;5054821;28;20042;-75
2023/02/27 12:10:13;;;;;;;7.73;1.93;;;;;;;;;;5036965;28;20033;-74
2023/02/27 12:12:45;;;;;;;7.13;4.10;;;;;;;;;;5036875;28;20025;-76
2023/02/27 12:15:29;;;;;;;7.53;3.90;;;;;;;;;;5045501;28;20041;-76
2023/02/27 12:18:11;;;;;;;7.37;3.50;;;;;;;;;;5040027;28;20021;-77
2023/02/27 12:20:45;;;;;;;5.07;1.57;;;;;;;;;;5038995;28;20025;-76
2023/02/27 12:23:15;;;;;;;3.27;1.60;;;;;;;;;;5037310;28;20040;-75
2023/02/27 12:25:41;;;;;;;3.70;1.93;;;;;;;;;;5055764;28;20036;-77
2023/02/27 12:28:23;;;;;;;5.53;2.80;;;;;;;;;;5042226;28;20155;-75
2023/02/27 12:31:01;;;;;;;3.10;1.33;;;;;;;;;;5059013;28;20067;-75
2023/02/27 12:33:33;;;;;;;8.03;1.30;;;;;;;;;;5055114;28;20123;-75
2023/02/27 12:36:02;;;;;;;5.90;2.30;;;;;;;;;;5036990;28;20123;-74
2023/02/27 12:38:29;;;;;;;3.40;1.20;;;;;;;;;;5038780;28;20279;-74
2023/02/27 12:41:01;;;;;;;5.97;1.63;;;;;;;;;;5041518;28;20050;-76
2023/02/27 12:43:30;;;;;;;7.95;1.60;;;;;;;;;;5061235;28;20101;-75
2023/02/27 12:45:56;;;;;;;5.07;2.67;;;;;;;;;;5041506;28;20028;-76
2023/02/27 12:48:26;;;;;;;1.80;0.80;;;;;;;;;;5061212;28;20045;-75
2023/02/27 12:51:11;;;;;;;2.70;1.07;;;;;;;;;;5060626;28;20033;-75
2023/02/27 12:53:58;;;;;;;2.93;1.80;;;;;;;;;;5056594;28;20048;-76
2023/02/27 12:56:27;;;;;;;5.50;1.33;;;;;;;;;;5042249;28;20039;-75
2023/02/27 12:59:05;;;;;;;2.63;1.53;;;;;;;;;;5061293;28;20029;-76
2023/02/27 13:01:38;;;;;;;2.03;1.00;;;;;;;;;;5043787;28;20024;-77
2023/02/27 13:04:17;;;;;;;2.67;1.27;;;;;;;;;;5056052;28;20037;-75
2023/02/27 13:06:48;;;;;;;4.83;1.20;;;;;;;;;;5043686;28;20112;-77
2023/02/27 13:09:14;;;;;;;3.73;1.20;;;;;;;;;;5044004;28;20032;-77
2023/02/27 13:11:44;;;;;;;2.60;1.00;;;;;;;;;;5042469;28;20031;-77
2023/02/27 13:14:28;;;;;;;5.63;2.87;;;;;;;;;;5049555;28;20053;-75
2023/02/27 13:17:03;;;;;;;3.77;1.33;;;;;;;;;;5060512;28;20056;-76
2023/02/27 13:19:33;;;;;;;6.70;1.10;;;;;;;;;;5056405;28;20025;-76
2023/02/27 13:22:05;;;;;;;3.57;1.40;;;;;;;;;;5057014;28;20029;-77
2023/02/27 13:24:34;;;;;;;3.97;1.00;;;;;;;;;;5055108;28;20064;-75
2023/02/27 13:27:03;;;;;;;1.83;0.90;;;;;;;;;;5056432;28;20036;-77
2023/02/27 13:29:34;;;;;;;2.60;1.57;;;;;;;;;;5060030;28;20094;-74
2023/02/27 13:32:06;;;;;;;3.53;1.53;;;;;;;;;;5039908;28;20757;-78
2023/02/27 13:34:41;;;;;;;4.68;2.50;;;;;;;;;;5040369;28;20052;-76
2023/02/27 13:37:08;;;;;;;2.53;1.77;;;;;;;;;;5057440;28;20028;-75
2023/02/27 13:39:46;;;;;;;3.87;2.00;;;;;;;;;;5057825;28;20024;-76
2023/02/27 13:42:29;;;;;;;4.07;2.37;;;;;;;;;;5059124;28;20050;-77
2023/02/27 13:44:55;;;;;;;;;;;;;;;;;;5048991;28;20488;-77
2023/02/27 13:47:30;;;;;;;6.80;3.57;;;;;;;;;;5059698;28;21592;-77
2023/02/27 13:49:56;;;;;;;3.40;1.10;;;;;;;;;;5059250;28;20120;-76
2023/02/27 13:52:30;;;;;;;2.07;1.00;;;;;;;;;;5043794;28;20103;-75
2023/02/27 13:54:56;;;;;;;4.60;2.03;;;;;;;;;;5040820;28;20116;-77
2023/02/27 13:57:26;;;;;;;4.20;1.63;;;;;;;;;;5058547;28;20078;-77
2023/02/27 13:59:55;;;;;;;7.10;3.50;;;;;;;;;;5046123;28;20127;-76
2023/02/27 14:02:39;;;;;;;5.87;2.87;;;;;;;;;;5055196;28;20509;-76
2023/02/27 14:05:06;;;;;;;5.30;1.43;;;;;;;;;;5042216;28;20039;-76
2023/02/27 14:07:43;;;;;;;2.30;1.30;;;;;;;;;;5059304;28;20039;-77
2023/02/27 14:10:11;;;;;;;1.53;0.70;;;;;;;;;;5058692;28;20492;-76
2023/02/27 14:12:39;;;;;;;9.23;3.30;;;;;;;;;;5058035;28;20040;-75
2023/02/27 14:15:27;;;;;;;7.77;3.27;;;;;;;;;;5057598;28;20037;-75
2023/02/27 14:17:57;;;;;;;2.60;1.33;;;;;;;;;;5036045;28;20048;-75
2023/02/27 14:20:26;;;;;;;5.67;2.37;;;;;;;;;;5041646;28;20043;-77
2023/02/27 14:23:10;;;;;;;2.10;0.67;;;;;;;;;;5057046;28;20032;-76
2023/02/27 14:25:51;;;;;;;4.73;1.60;;;;;;;;;;5058851;28;20889;-77
2023/02/27 14:28:36;;;;;;;2.17;0.70;;;;;;;;;;5045855;28;20033;-77
2023/02/27 14:31:08;;;;;;;5.07;2.77;;;;;;;;;;5043274;28;20110;-77
2023/02/27 14:33:49;;;;;;;4.47;1.00;;;;;;;;;;5043307;28;20033;-75
2023/02/27 14:36:18;;;;;;;3.43;1.23;;;;;;;;;;5048018;28;20036;-76
2023/02/27 14:38:44;;;;;;;4.33;1.30;;;;;;;;;;5045044;28;20059;-77
2023/02/27 14:41:10;;;;;;;4.80;2.10;;;;;;;;;;5055588;28;20051;-77
2023/02/27 14:43:40;;;;;;;5.23;1.10;;;;;;;;;;5061075;28;20104;-76
2023/02/27 14:46:13;;;;;;;4.63;2.07;;;;;;;;;;5074669;28;20035;-76
2023/02/27 14:48:39;;;;;;;7.20;4.40;;;;;;;;;;5067611;28;20029;-77
2023/02/27 14:51:05;;;;;;;1.00;0.70;;;;;;;;;;5054651;28;20024;-76
2023/02/27 14:53:31;;;;;;;3.77;2.00;;;;;;;;;;5067471;28;20036;-76
2023/02/27 14:55:59;;;;;;;4.10;1.30;;;;;;;;;;5074597;28;20096;-76
2023/02/27 14:58:27;;;;;;;4.80;1.17;;;;;;;;;;5049464;28;20028;-77